createdAt,value
2023-02-13T00:00:48.915Z,90.45
2023-02-13T00:02:52.532Z,89.65
2023-02-13T00:04:55.609Z,89.83
2023-02-13T00:06:58.756Z,89.13
2023-02-13T00:09:02.736Z,89.55
2023-02-13T00:11:07.611Z,89.40
2023-02-13T00:13:10.671Z,89.42
2023-02-13T00:15:13.734Z,89.70
2023-02-13T00:17:16.796Z,90.55
2023-02-13T00:19:19.884Z,89.85
2023-02-13T00:21:22.973Z,90.48
2023-02-13T00:23:26.233Z,89.24
2023-02-13T00:25:29.643Z,90.23
2023-02-13T00:27:34.246Z,89.56
2023-02-13T00:29:38.185Z,90.27
2023-02-13T00:31:41.395Z,90.34
2023-02-13T00:33:44.938Z,90.34
2023-02-13T00:35:48.028Z,90.17
2023-02-13T00:37:51.063Z,90.93
2023-02-13T00:39:54.519Z,93.58
2023-02-13T00:41:57.609Z,93.45
2023-02-13T00:44:02.063Z,92.37
2023-02-13T00:46:07.411Z,93.47
2023-02-13T00:48:10.611Z,93.11
2023-02-13T00:50:13.731Z,93.39
2023-02-13T00:52:16.903Z,92.16
2023-02-13T00:54:27.617Z,92.80
2023-02-13T00:56:30.681Z,92.78
2023-02-13T00:58:34.135Z,92.86
2023-02-13T01:00:38.693Z,92.50
2023-02-13T01:02:41.889Z,92.24
2023-02-13T01:04:44.982Z,91.57
2023-02-13T01:06:48.035Z,92.39
2023-02-13T01:08:51.124Z,92.42
2023-02-13T01:10:54.253Z,92.84
2023-02-13T01:12:57.603Z,92.85
2023-02-13T01:15:00.707Z,92.27
2023-02-13T01:17:05.275Z,92.21
2023-02-13T01:19:08.321Z,92.68
2023-02-13T01:21:23.278Z,91.77
2023-02-13T01:23:31.482Z,91.94
2023-02-13T01:25:34.699Z,91.83
2023-02-13T01:27:38.388Z,91.77
2023-02-13T01:29:41.476Z,90.70
2023-02-13T01:31:44.665Z,92.24
2023-02-13T01:33:49.094Z,91.80
2023-02-13T01:35:52.633Z,90.44
2023-02-13T01:37:55.743Z,91.12
2023-02-13T01:40:00.157Z,90.96
2023-02-13T01:42:03.301Z,89.98
2023-02-13T01:44:40.123Z,90.92
2023-02-13T01:46:44.311Z,90.51
2023-02-13T01:48:49.550Z,90.85
2023-02-13T01:50:54.248Z,90.33
2023-02-13T01:53:03.337Z,90.29
2023-02-13T01:55:07.821Z,89.63
2023-02-13T01:57:15.160Z,89.04
2023-02-13T01:59:20.158Z,89.62
2023-02-13T02:01:23.722Z,89.27
2023-02-13T02:03:29.432Z,89.85
2023-02-13T02:05:38.642Z,89.59
2023-02-13T02:07:42.847Z,89.45
2023-02-13T02:09:46.418Z,90.04
2023-02-13T02:11:53.771Z,89.25
2023-02-13T02:13:57.447Z,89.54
2023-02-13T02:16:08.694Z,90.11
2023-02-13T02:18:16.409Z,90.01
2023-02-13T02:20:27.790Z,89.96
2023-02-13T02:23:00.589Z,90.47
2023-02-13T02:25:25.775Z,90.22
2023-02-13T02:27:47.127Z,89.78
2023-02-13T02:30:21.994Z,89.91
2023-02-13T02:32:50.330Z,89.08
2023-02-13T02:34:58.459Z,89.54
2023-02-13T02:37:11.428Z,89.67
2023-02-13T02:39:23.685Z,89.36
2023-02-13T02:41:43.139Z,89.56
2023-02-13T02:43:55.550Z,89.41
2023-02-13T02:46:03.911Z,89.41
2023-02-13T02:48:28.999Z,88.94
2023-02-13T02:50:36.285Z,89.50
2023-02-13T02:52:49.428Z,89.59
2023-02-13T02:55:07.748Z,88.67
2023-02-13T02:57:22.954Z,89.70
2023-02-13T02:59:50.567Z,88.89
2023-02-13T03:02:12.497Z,89.06
2023-02-13T03:04:42.432Z,88.62
2023-02-13T03:06:47.847Z,88.93
2023-02-13T03:09:11.955Z,89.07
2023-02-13T03:11:32.933Z,89.27
2023-02-13T03:13:42.358Z,89.46
2023-02-13T03:16:00.365Z,89.17
2023-02-13T03:18:29.567Z,89.33
2023-02-13T03:20:59.038Z,89.55
2023-02-13T03:23:10.042Z,89.56
2023-02-13T03:25:19.128Z,89.14
2023-02-13T03:27:58.344Z,88.97
2023-02-13T03:30:11.753Z,89.25
2023-02-13T03:32:22.483Z,89.08
2023-02-13T03:34:46.648Z,89.08
2023-02-13T03:37:11.422Z,89.52
2023-02-13T03:39:19.552Z,89.58
2023-02-13T03:41:24.890Z,89.59
2023-02-13T03:43:28.567Z,89.63
2023-02-13T03:45:51.444Z,89.54
2023-02-13T03:47:56.625Z,89.47
2023-02-13T03:50:08.024Z,89.39
2023-02-13T03:52:16.747Z,89.20
2023-02-13T03:54:41.794Z,88.86
2023-02-13T03:57:02.891Z,89.14
2023-02-13T03:59:17.628Z,88.66
2023-02-13T04:01:24.367Z,88.81
2023-02-13T04:03:29.739Z,89.35
2023-02-13T04:05:34.504Z,89.15
2023-02-13T04:07:39.630Z,88.99
2023-02-13T04:09:44.196Z,88.59
2023-02-13T04:11:53.830Z,88.49
2023-02-13T04:13:59.046Z,88.44
2023-02-13T04:16:07.698Z,88.61
2023-02-13T04:18:13.675Z,88.74
2023-02-13T04:20:16.719Z,89.16
2023-02-13T04:22:20.422Z,88.52
2023-02-13T04:24:24.764Z,88.28
2023-02-13T04:26:32.606Z,88.50
2023-02-13T04:28:35.838Z,88.08
2023-02-13T04:30:39.475Z,87.99
2023-02-13T04:32:42.586Z,88.28
2023-02-13T04:34:45.679Z,87.88
2023-02-13T04:36:48.879Z,87.61
2023-02-13T04:38:52.030Z,87.63
2023-02-13T04:40:56.787Z,87.82
2023-02-13T04:43:00.020Z,87.68
2023-02-13T04:45:03.181Z,87.66
2023-02-13T04:47:06.256Z,87.66
2023-02-13T04:49:09.414Z,87.53
2023-02-13T04:51:12.476Z,87.84
2023-02-13T04:53:15.507Z,88.19
2023-02-13T04:55:18.594Z,87.76
2023-02-13T04:57:22.974Z,87.63
2023-02-13T04:59:26.087Z,87.51
2023-02-13T05:01:29.243Z,87.03
2023-02-13T05:03:32.372Z,86.79
2023-02-13T05:05:36.132Z,87.14
2023-02-13T05:07:39.296Z,88.07
2023-02-13T05:09:42.363Z,87.70
2023-02-13T05:11:45.414Z,87.74
2023-02-13T05:13:49.884Z,87.26
2023-02-13T05:15:53.288Z,87.33
2023-02-13T05:17:56.405Z,87.59
2023-02-13T05:19:59.929Z,87.61
2023-02-13T05:22:20.429Z,87.63
2023-02-13T05:24:23.564Z,87.75
2023-02-13T05:26:26.592Z,87.65
2023-02-13T05:28:47.322Z,87.86
2023-02-13T05:30:51.928Z,87.73
2023-02-13T05:32:55.694Z,87.31
2023-02-13T05:34:58.768Z,87.43
2023-02-13T05:37:01.834Z,87.39
2023-02-13T05:39:05.375Z,87.47
2023-02-13T05:41:08.556Z,87.98
2023-02-13T05:43:11.732Z,87.78
2023-02-13T05:45:16.137Z,87.37
2023-02-13T05:47:20.536Z,87.33
2023-02-13T05:49:23.975Z,87.53
2023-02-13T05:51:27.100Z,87.38
2023-02-13T05:53:30.753Z,87.85
2023-02-13T05:55:33.986Z,87.86
2023-02-13T05:57:37.043Z,87.95
2023-02-13T05:59:40.197Z,87.71
2023-02-13T06:01:43.408Z,88.01
2023-02-13T06:03:48.213Z,88.01
2023-02-13T06:05:51.435Z,88.26
2023-02-13T06:07:54.488Z,87.55
2023-02-13T06:09:59.537Z,87.34
2023-02-13T06:12:02.561Z,86.88
2023-02-13T06:14:05.639Z,86.90
2023-02-13T06:16:09.190Z,87.13
2023-02-13T06:18:12.655Z,87.47
2023-02-13T06:20:17.259Z,87.75
2023-02-13T06:22:20.340Z,87.48
2023-02-13T06:24:23.406Z,88.12
2023-02-13T06:26:26.440Z,88.09
2023-02-13T06:28:29.624Z,88.32
2023-02-13T06:30:32.910Z,88.16
2023-02-13T06:32:35.999Z,88.53
2023-02-13T06:34:39.078Z,89.02
2023-02-13T06:36:43.495Z,88.94
2023-02-13T06:38:46.620Z,88.37
2023-02-13T06:40:50.607Z,88.11
2023-02-13T06:42:53.685Z,87.63
2023-02-13T06:44:56.774Z,87.17
2023-02-13T06:47:00.037Z,87.75
2023-02-13T06:49:03.255Z,88.33
2023-02-13T06:51:06.914Z,87.69
2023-02-13T06:53:11.301Z,87.96
2023-02-13T06:55:14.474Z,87.53
2023-02-13T06:57:17.681Z,88.07
2023-02-13T06:59:20.754Z,87.73
2023-02-13T07:01:23.907Z,87.52
2023-02-13T07:03:27.089Z,87.59
2023-02-13T07:05:30.191Z,87.52
2023-02-13T07:07:34.392Z,87.32
2023-02-13T07:09:39.223Z,88.00
2023-02-13T07:11:42.228Z,87.00
2023-02-13T07:13:45.296Z,86.80
2023-02-13T07:15:48.427Z,85.55
2023-02-13T07:17:56.920Z,85.63
2023-02-13T07:20:00.122Z,85.72
2023-02-13T07:22:03.215Z,85.80
2023-02-13T07:24:08.156Z,86.30
2023-02-13T07:26:12.816Z,85.96
2023-02-13T07:28:15.966Z,86.24
2023-02-13T07:30:19.442Z,86.22
2023-02-13T07:32:22.530Z,86.41
2023-02-13T07:34:25.641Z,85.96
2023-02-13T07:36:28.952Z,85.48
2023-02-13T07:38:32.143Z,85.59
2023-02-13T07:40:35.228Z,86.34
2023-02-13T07:42:39.828Z,85.37
2023-02-13T07:44:42.916Z,85.53
2023-02-13T07:46:46.123Z,84.94
2023-02-13T07:48:49.582Z,84.71
2023-02-13T07:50:52.650Z,84.85
2023-02-13T07:52:56.195Z,84.26
2023-02-13T07:54:59.282Z,83.41
2023-02-13T07:57:02.385Z,83.00
2023-02-13T07:59:07.905Z,83.00
2023-02-13T08:01:12.719Z,82.74
2023-02-13T08:03:15.936Z,82.05
2023-02-13T08:05:19.432Z,81.86
2023-02-13T08:07:22.572Z,81.80
2023-02-13T08:09:43.342Z,81.67
2023-02-13T08:11:55.155Z,81.52
2023-02-13T08:13:58.295Z,82.24
2023-02-13T08:16:03.994Z,82.23
2023-02-13T08:18:07.375Z,81.41
2023-02-13T08:20:11.322Z,81.29
2023-02-13T08:22:14.495Z,80.64
2023-02-13T08:24:20.597Z,81.02
2023-02-13T08:26:23.705Z,81.30
2023-02-13T08:28:26.857Z,80.80
2023-02-13T08:30:30.208Z,80.51
2023-02-13T08:32:44.826Z,83.52
2023-02-13T08:34:51.784Z,81.35
2023-02-13T08:36:54.917Z,80.64
2023-02-13T08:38:58.092Z,81.03
2023-02-13T08:41:01.222Z,81.21
2023-02-13T08:43:05.828Z,81.65
2023-02-13T08:45:11.735Z,80.78
2023-02-13T08:47:15.134Z,80.18
2023-02-13T08:49:19.795Z,80.16
2023-02-13T08:51:23.049Z,80.32
2023-02-13T08:53:26.238Z,79.63
2023-02-13T08:55:31.497Z,79.93
2023-02-13T08:57:34.679Z,79.97
2023-02-13T08:59:37.848Z,78.66
2023-02-13T09:01:41.088Z,80.18
2023-02-13T09:03:44.204Z,78.50
2023-02-13T09:05:48.834Z,79.72
2023-02-13T09:07:52.167Z,79.82
2023-02-13T09:09:55.345Z,80.51
2023-02-13T09:11:58.464Z,79.96
2023-02-13T09:14:01.582Z,80.16
2023-02-13T09:16:05.935Z,78.90
2023-02-13T09:18:09.206Z,78.91
2023-02-13T09:20:14.017Z,79.89
2023-02-13T09:22:18.525Z,78.96
2023-02-13T09:24:21.786Z,79.96
2023-02-13T09:26:24.823Z,79.01
2023-02-13T09:28:28.250Z,78.91
2023-02-13T09:30:32.279Z,78.96
2023-02-13T09:32:35.551Z,79.47
2023-02-13T09:34:38.764Z,78.50
2023-02-13T09:36:41.893Z,77.61
2023-02-13T09:38:46.493Z,77.98
2023-02-13T09:40:51.589Z,79.40
2023-02-13T09:42:55.214Z,77.70
2023-02-13T09:45:00.977Z,77.29
2023-02-13T09:47:06.994Z,77.88
2023-02-13T09:49:13.788Z,77.72
2023-02-13T09:51:18.774Z,78.04
2023-02-13T09:53:24.114Z,78.49
2023-02-13T09:55:31.470Z,78.86
2023-02-13T09:57:35.941Z,78.24
2023-02-13T09:59:47.440Z,77.10
2023-02-13T10:01:51.895Z,76.83
2023-02-13T10:04:17.004Z,76.09
2023-02-13T10:06:25.566Z,75.11
2023-02-13T10:08:36.238Z,74.42
2023-02-13T10:10:49.688Z,74.87
2023-02-13T10:13:14.680Z,74.75
2023-02-13T10:15:23.351Z,74.58
2023-02-13T10:17:31.785Z,73.92
2023-02-13T10:19:37.748Z,75.00
2023-02-13T10:21:43.894Z,74.79
2023-02-13T10:23:49.464Z,73.78
2023-02-13T10:25:59.471Z,73.82
2023-02-13T10:28:08.647Z,72.05
2023-02-13T10:30:20.199Z,72.61
2023-02-13T10:32:28.419Z,73.32
2023-02-13T10:34:35.533Z,73.58
2023-02-13T10:36:42.267Z,73.65
2023-02-13T10:38:47.089Z,74.08
2023-02-13T10:41:06.513Z,74.73
2023-02-13T10:43:10.669Z,72.95
2023-02-13T10:45:34.364Z,73.39
2023-02-13T10:47:55.400Z,71.86
2023-02-13T10:50:08.029Z,73.72
2023-02-13T10:52:18.453Z,73.59
2023-02-13T10:54:32.728Z,74.48
2023-02-13T10:56:40.046Z,74.94
2023-02-13T10:58:52.478Z,74.61
2023-02-13T11:00:57.907Z,74.18
2023-02-13T11:03:01.321Z,75.14
2023-02-13T11:05:15.632Z,73.71
2023-02-13T11:07:21.160Z,74.67
2023-02-13T11:09:25.255Z,73.11
2023-02-13T11:11:33.708Z,74.71
2023-02-13T11:13:38.206Z,72.75
2023-02-13T11:15:41.395Z,72.76
2023-02-13T11:17:46.637Z,72.96
2023-02-13T11:19:51.968Z,72.31
2023-02-13T11:21:57.138Z,73.57
2023-02-13T11:24:00.247Z,72.46
2023-02-13T11:26:07.665Z,71.88
2023-02-13T11:28:16.423Z,73.05
2023-02-13T11:30:33.008Z,72.45
2023-02-13T11:32:37.513Z,72.57
2023-02-13T11:34:41.032Z,72.90
2023-02-13T11:36:44.228Z,74.10
2023-02-13T11:38:47.710Z,73.73
2023-02-13T11:40:53.382Z,72.47
2023-02-13T11:42:56.543Z,73.69
2023-02-13T11:45:01.381Z,75.58
2023-02-13T11:47:04.775Z,72.59
2023-02-13T11:49:17.311Z,73.44
2023-02-13T11:51:20.458Z,73.80
2023-02-13T11:53:25.592Z,75.06
2023-02-13T11:55:32.392Z,75.21
2023-02-13T11:57:37.383Z,73.82
2023-02-13T11:59:43.119Z,74.21
2023-02-13T12:01:49.374Z,73.66
2023-02-13T12:04:02.682Z,73.86
2023-02-13T12:06:14.094Z,73.37
2023-02-13T12:08:17.346Z,74.05
2023-02-13T12:10:23.591Z,71.70
2023-02-13T12:12:31.582Z,72.72
2023-02-13T12:14:39.300Z,72.15
2023-02-13T12:16:44.912Z,73.38
2023-02-13T12:18:51.552Z,71.50
2023-02-13T12:20:59.268Z,71.92
2023-02-13T12:23:07.023Z,73.15
2023-02-13T12:25:24.851Z,71.82
2023-02-13T12:27:34.087Z,72.09
2023-02-13T12:29:56.961Z,73.41
2023-02-13T12:32:06.280Z,73.86
2023-02-13T12:34:30.651Z,73.29
2023-02-13T12:36:37.652Z,72.53
2023-02-13T12:38:50.628Z,72.94
2023-02-13T12:41:11.471Z,73.34
2023-02-13T12:43:30.639Z,73.68
2023-02-13T12:45:38.574Z,72.46
2023-02-13T12:47:49.584Z,71.25
2023-02-13T12:50:22.194Z,70.14
2023-02-13T12:52:35.381Z,72.01
2023-02-13T12:54:48.592Z,72.88
2023-02-13T12:57:00.981Z,72.91
2023-02-13T12:59:10.408Z,73.12
2023-02-13T13:01:21.294Z,71.75
2023-02-13T13:03:35.060Z,71.08
2023-02-13T13:06:11.837Z,72.68
2023-02-13T13:08:25.862Z,71.34
2023-02-13T13:10:41.452Z,71.76
2023-02-13T13:12:52.572Z,71.90
2023-02-13T13:15:00.488Z,71.31
2023-02-13T13:17:10.363Z,70.43
2023-02-13T13:19:21.146Z,69.83
2023-02-13T13:21:31.878Z,69.74
2023-02-13T13:23:39.346Z,70.84
2023-02-13T13:25:50.732Z,70.39
2023-02-13T13:27:56.655Z,69.15
2023-02-13T13:30:01.125Z,69.32
2023-02-13T13:32:07.492Z,69.85
2023-02-13T13:34:16.716Z,69.75
2023-02-13T13:36:25.169Z,69.44
2023-02-13T13:38:39.902Z,70.26
2023-02-13T13:40:47.651Z,70.97
2023-02-13T13:42:54.690Z,71.89
2023-02-13T13:45:10.938Z,71.93
2023-02-13T13:47:24.744Z,71.13
2023-02-13T13:49:41.637Z,70.13
2023-02-13T13:51:44.778Z,69.98
2023-02-13T13:54:24.961Z,71.33
2023-02-13T13:57:12.433Z,69.73
2023-02-13T13:59:18.293Z,69.38
2023-02-13T14:01:31.061Z,70.22
2023-02-13T14:03:37.028Z,69.86
2023-02-13T14:05:59.272Z,70.99
2023-02-13T14:08:04.159Z,70.72
2023-02-13T14:10:47.424Z,70.09
2023-02-13T14:13:02.535Z,70.12
2023-02-13T14:15:06.114Z,68.82
2023-02-13T14:17:14.804Z,69.35
2023-02-13T14:19:30.280Z,69.70
2023-02-13T14:21:33.452Z,69.91
2023-02-13T14:23:53.133Z,70.67
2023-02-13T14:26:20.508Z,69.30
2023-02-13T14:28:26.309Z,68.93
2023-02-13T14:30:34.619Z,69.17
2023-02-13T14:32:40.778Z,69.49
2023-02-13T14:34:45.674Z,68.87
2023-02-13T14:37:07.476Z,68.72
2023-02-13T14:39:23.062Z,68.96
2023-02-13T14:41:47.586Z,69.78
2023-02-13T14:43:54.035Z,68.46
2023-02-13T14:45:58.458Z,70.33
2023-02-13T14:48:07.536Z,69.56
2023-02-13T14:50:17.449Z,70.10
2023-02-13T14:52:26.340Z,69.24
2023-02-13T14:54:34.629Z,69.95
2023-02-13T14:56:39.209Z,68.88
2023-02-13T14:58:48.698Z,69.90
2023-02-13T15:00:56.230Z,69.40
2023-02-13T15:03:03.730Z,69.67
2023-02-13T15:05:11.619Z,69.61
2023-02-13T15:07:17.940Z,70.81
2023-02-13T15:09:27.375Z,70.23
2023-02-13T15:11:38.925Z,71.10
2023-02-13T15:13:42.727Z,70.81
2023-02-13T15:15:46.842Z,70.31
2023-02-13T15:17:51.862Z,70.38
2023-02-13T15:19:57.893Z,70.63
2023-02-13T15:22:03.245Z,70.00
2023-02-13T15:24:06.680Z,71.24
2023-02-13T15:26:10.156Z,71.28
2023-02-13T15:28:20.875Z,69.91
2023-02-13T15:30:25.802Z,70.76
2023-02-13T15:32:34.356Z,70.89
2023-02-13T15:34:40.852Z,71.49
2023-02-13T15:36:43.899Z,71.39
2023-02-13T15:38:47.116Z,72.14
2023-02-13T15:40:52.034Z,70.88
2023-02-13T15:42:56.100Z,72.25
2023-02-13T15:44:59.561Z,72.62
2023-02-13T15:47:06.408Z,72.13
2023-02-13T15:49:14.355Z,71.43
2023-02-13T15:51:21.750Z,73.35
2023-02-13T15:53:24.950Z,72.04
2023-02-13T15:55:29.646Z,72.29
2023-02-13T15:57:33.083Z,72.53
2023-02-13T15:59:38.475Z,73.40
2023-02-13T16:01:44.334Z,73.79
2023-02-13T16:03:49.629Z,73.18
2023-02-13T16:05:52.841Z,73.55
2023-02-13T16:07:59.279Z,73.89
2023-02-13T16:10:18.769Z,74.34
2023-02-13T16:12:24.166Z,74.88
2023-02-13T16:14:28.232Z,74.40
2023-02-13T16:16:33.223Z,74.99
2023-02-13T16:18:36.545Z,75.13
2023-02-13T16:20:39.748Z,75.32
2023-02-13T16:22:46.392Z,75.38
2023-02-13T16:24:54.213Z,75.87
2023-02-13T16:26:57.603Z,76.51
2023-02-13T16:29:00.804Z,76.65
2023-02-13T16:31:05.019Z,76.83
2023-02-13T16:33:29.401Z,76.19
2023-02-13T16:35:33.661Z,77.21
2023-02-13T16:37:36.843Z,77.35
2023-02-13T16:39:39.915Z,77.32
2023-02-13T16:41:44.492Z,77.37
2023-02-13T16:43:48.437Z,77.43
2023-02-13T16:45:51.879Z,78.34
2023-02-13T16:48:02.454Z,78.58
2023-02-13T16:50:06.111Z,77.54
2023-02-13T16:52:12.660Z,78.59
2023-02-13T16:54:34.692Z,79.32
2023-02-13T16:56:39.418Z,78.78
2023-02-13T16:58:43.951Z,79.19
2023-02-13T17:00:51.248Z,78.67
2023-02-13T17:02:54.460Z,79.80
2023-02-13T17:05:00.015Z,78.58
2023-02-13T17:07:03.043Z,78.83
2023-02-13T17:09:06.114Z,78.70
2023-02-13T17:11:09.821Z,78.58
2023-02-13T17:13:16.639Z,80.18
2023-02-13T17:15:22.782Z,79.37
2023-02-13T17:17:28.043Z,80.27
2023-02-13T17:19:31.117Z,79.41
2023-02-13T17:21:34.417Z,80.07
2023-02-13T17:23:37.655Z,79.36
2023-02-13T17:25:41.278Z,80.19
2023-02-13T17:27:44.507Z,80.24
2023-02-13T17:29:47.774Z,80.44
2023-02-13T17:31:55.423Z,79.91
2023-02-13T17:33:58.544Z,81.00
2023-02-13T17:36:01.595Z,80.42
2023-02-13T17:38:06.307Z,80.51
2023-02-13T17:40:10.654Z,80.26
2023-02-13T17:42:20.803Z,80.55
2023-02-13T17:44:23.997Z,81.06
2023-02-13T17:46:27.407Z,79.92
2023-02-13T17:48:31.853Z,81.24
2023-02-13T17:50:36.116Z,81.59
2023-02-13T17:52:40.010Z,81.26
2023-02-13T17:54:43.990Z,82.31
2023-02-13T17:56:48.120Z,82.16
2023-02-13T17:58:51.557Z,81.44
2023-02-13T18:00:54.933Z,82.01
2023-02-13T18:02:59.679Z,82.28
2023-02-13T18:05:04.333Z,82.37
2023-02-13T18:07:07.888Z,82.42
2023-02-13T18:09:10.998Z,82.51
2023-02-13T18:11:14.055Z,83.20
2023-02-13T18:13:17.248Z,82.67
2023-02-13T18:15:21.053Z,82.61
2023-02-13T18:17:24.461Z,82.92
2023-02-13T18:19:28.436Z,82.81
2023-02-13T18:21:33.126Z,82.15
2023-02-13T18:23:36.442Z,82.54
2023-02-13T18:25:39.544Z,82.21
2023-02-13T18:27:42.742Z,82.02
2023-02-13T18:29:46.098Z,82.48
2023-02-13T18:31:51.789Z,82.15
2023-02-13T18:33:54.978Z,82.27
2023-02-13T18:36:02.350Z,82.72
2023-02-13T18:38:06.857Z,82.82
2023-02-13T18:40:10.774Z,82.99
2023-02-13T18:42:14.121Z,83.19
2023-02-13T18:44:27.156Z,83.89
2023-02-13T18:46:31.706Z,83.36
2023-02-13T18:48:34.823Z,83.82
2023-02-13T18:50:40.799Z,83.74
2023-02-13T18:52:43.946Z,84.16
2023-02-13T18:54:48.516Z,83.86
2023-02-13T18:56:51.770Z,83.87
2023-02-13T18:58:54.944Z,84.48
2023-02-13T19:00:58.547Z,84.33
2023-02-13T19:03:01.884Z,84.91
2023-02-13T19:05:06.443Z,84.06
2023-02-13T19:07:10.878Z,83.12
2023-02-13T19:09:13.990Z,85.22
2023-02-13T19:11:23.276Z,83.92
2023-02-13T19:13:26.404Z,84.18
2023-02-13T19:15:29.578Z,84.42
2023-02-13T19:17:32.786Z,85.15
2023-02-13T19:19:35.984Z,86.14
2023-02-13T19:21:40.557Z,85.40
2023-02-13T19:23:46.546Z,86.67
2023-02-13T19:25:49.625Z,85.90
2023-02-13T19:27:54.097Z,86.16
2023-02-13T19:29:58.004Z,85.91
2023-02-13T19:32:01.580Z,87.12
2023-02-13T19:34:06.873Z,87.55
2023-02-13T19:36:12.693Z,86.55
2023-02-13T19:38:15.875Z,86.11
2023-02-13T19:40:19.191Z,87.35
2023-02-13T19:42:22.386Z,87.63
2023-02-13T19:44:26.852Z,87.13
2023-02-13T19:46:31.660Z,86.74
2023-02-13T19:48:35.699Z,87.20
2023-02-13T19:50:39.061Z,87.55
2023-02-13T19:52:42.183Z,86.90
2023-02-13T19:54:45.223Z,87.72
2023-02-13T19:56:48.618Z,86.82
2023-02-13T19:58:51.774Z,87.43
2023-02-13T20:00:57.530Z,87.58
2023-02-13T20:03:03.623Z,88.39
2023-02-13T20:05:08.750Z,87.76
2023-02-13T20:07:11.965Z,87.79
2023-02-13T20:09:15.680Z,88.54
2023-02-13T20:11:20.374Z,88.68
2023-02-13T20:13:23.832Z,88.52
2023-02-13T20:15:27.610Z,88.69
2023-02-13T20:17:32.233Z,89.17
2023-02-13T20:19:38.524Z,88.78
2023-02-13T20:21:42.443Z,88.73
2023-02-13T20:23:49.605Z,88.41
2023-02-13T20:25:52.733Z,88.37
2023-02-13T20:27:55.924Z,89.06
2023-02-13T20:30:06.618Z,88.74
2023-02-13T20:32:10.919Z,88.70
2023-02-13T20:34:15.533Z,88.78
2023-02-13T20:36:20.555Z,88.60
2023-02-13T20:38:23.572Z,90.37
2023-02-13T20:40:27.120Z,88.98
2023-02-13T20:42:30.220Z,89.64
2023-02-13T20:44:33.390Z,88.74
2023-02-13T20:46:38.323Z,88.89
2023-02-13T20:48:42.009Z,88.29
2023-02-13T20:50:46.546Z,88.67
2023-02-13T20:52:49.686Z,89.57
2023-02-13T20:54:53.693Z,88.91
2023-02-13T20:56:56.836Z,89.22
2023-02-13T20:59:02.543Z,90.22
2023-02-13T21:01:12.535Z,89.97
2023-02-13T21:03:17.045Z,89.75
2023-02-13T21:05:20.223Z,89.59
2023-02-13T21:07:24.892Z,90.60
2023-02-13T21:09:28.300Z,89.55
2023-02-13T21:11:34.065Z,89.52
2023-02-13T21:13:39.218Z,89.41
2023-02-13T21:15:44.777Z,89.73
2023-02-13T21:17:47.845Z,90.11
2023-02-13T21:19:51.054Z,90.16
2023-02-13T21:21:54.178Z,90.64
2023-02-13T21:24:00.201Z,90.74
2023-02-13T21:26:04.112Z,90.43
2023-02-13T21:28:07.455Z,90.80
2023-02-13T21:30:11.717Z,90.87
2023-02-13T21:32:15.249Z,90.64
2023-02-13T21:34:19.283Z,90.38
2023-02-13T21:36:22.446Z,90.92
2023-02-13T21:38:25.761Z,91.58
2023-02-13T21:40:30.240Z,91.59
2023-02-13T21:42:33.359Z,90.98
2023-02-13T21:44:36.610Z,90.76
2023-02-13T21:46:39.811Z,90.55
2023-02-13T21:48:43.688Z,90.79
2023-02-13T21:50:46.817Z,90.79
2023-02-13T21:52:49.884Z,91.38
2023-02-13T21:54:53.071Z,90.64
2023-02-13T21:56:57.576Z,91.12
2023-02-13T21:59:00.977Z,91.44
2023-02-13T22:01:20.416Z,91.75
2023-02-13T22:03:27.154Z,92.29
2023-02-13T22:05:30.247Z,92.72
2023-02-13T22:07:53.407Z,91.78
2023-02-13T22:09:56.517Z,91.87
2023-02-13T22:12:01.035Z,92.25
2023-02-13T22:14:05.658Z,92.10
2023-02-13T22:16:10.106Z,92.15
2023-02-13T22:18:13.234Z,92.30
2023-02-13T22:20:16.540Z,92.10
2023-02-13T22:22:20.112Z,92.38
2023-02-13T22:24:23.341Z,92.70
2023-02-13T22:26:28.229Z,92.44
2023-02-13T22:28:32.978Z,93.07
2023-02-13T22:30:37.744Z,92.63
2023-02-13T22:32:41.056Z,92.99
2023-02-13T22:34:44.286Z,93.09
2023-02-13T22:36:47.346Z,93.45
2023-02-13T22:38:51.480Z,93.82
2023-02-13T22:40:54.610Z,93.35
2023-02-13T22:42:57.707Z,93.65
2023-02-13T22:45:02.161Z,93.38
2023-02-13T22:47:07.292Z,93.20
2023-02-13T22:49:10.467Z,93.39
2023-02-13T22:51:15.856Z,93.77
2023-02-13T22:53:18.972Z,94.14
2023-02-13T22:55:22.042Z,93.81
2023-02-13T22:57:25.283Z,93.41
2023-02-13T22:59:28.461Z,93.35
2023-02-13T23:01:32.884Z,94.27
2023-02-13T23:03:36.058Z,93.32
2023-02-13T23:05:40.723Z,93.34
2023-02-13T23:07:43.985Z,93.41
2023-02-13T23:09:47.468Z,93.16
2023-02-13T23:12:07.938Z,93.42
2023-02-13T23:14:11.412Z,92.78
2023-02-13T23:16:15.245Z,93.52
2023-02-13T23:18:19.002Z,93.43
2023-02-13T23:20:22.903Z,93.73
2023-02-13T23:22:26.040Z,92.99
2023-02-13T23:24:30.241Z,93.15
2023-02-13T23:26:33.242Z,93.16
2023-02-13T23:28:36.894Z,93.10
2023-02-13T23:30:40.938Z,92.91
2023-02-13T23:32:44.249Z,92.58
2023-02-13T23:34:48.692Z,92.24
2023-02-13T23:36:51.922Z,91.78
2023-02-13T23:38:55.041Z,91.22
2023-02-13T23:40:58.448Z,90.39
2023-02-13T23:43:01.752Z,90.36
2023-02-13T23:45:04.979Z,89.94
2023-02-13T23:47:08.076Z,89.06
2023-02-13T23:49:11.256Z,88.92
2023-02-13T23:51:15.938Z,89.34
2023-02-13T23:53:18.976Z,89.76
2023-02-13T23:55:22.146Z,89.24
2023-02-13T23:57:25.555Z,89.10
2023-02-13T23:59:28.799Z,89.23
